createdAt,value
2022-09-20T00:03:26.478Z,71.74
2022-09-20T00:08:31.396Z,71.69
2022-09-20T00:13:36.506Z,71.52
2022-09-20T00:18:42.055Z,71.75
2022-09-20T00:23:47.554Z,71.88
2022-09-20T00:28:52.695Z,72.41
2022-09-20T00:34:13.982Z,72.24
2022-09-20T00:39:19.673Z,71.92
2022-09-20T00:44:43.905Z,72.28
2022-09-20T00:49:48.648Z,72.38
2022-09-20T00:54:53.730Z,72.61
2022-09-20T00:59:58.375Z,72.67
2022-09-20T01:05:01.905Z,72.68
2022-09-20T01:10:09.066Z,72.77
2022-09-20T01:15:14.481Z,72.72
2022-09-20T01:20:25.962Z,72.31
2022-09-20T01:26:04.001Z,72.37
2022-09-20T01:31:16.199Z,72.04
2022-09-20T01:36:26.775Z,72.18
2022-09-20T01:41:37.326Z,71.55
2022-09-20T01:46:45.116Z,71.86
2022-09-20T01:52:32.627Z,71.35
2022-09-20T01:58:09.148Z,71.65
2022-09-20T02:03:56.038Z,71.71
2022-09-20T02:09:42.460Z,71.98
2022-09-20T02:14:54.947Z,72.41
2022-09-20T02:20:24.264Z,71.99
2022-09-20T02:25:53.028Z,72.17
2022-09-20T02:31:03.457Z,72.30
2022-09-20T02:36:24.563Z,71.71
2022-09-20T02:42:01.382Z,70.85
2022-09-20T02:47:15.901Z,70.80
2022-09-20T02:52:30.459Z,70.76
2022-09-20T02:57:45.691Z,71.14
2022-09-20T03:03:01.957Z,71.38
2022-09-20T03:08:34.514Z,70.98
2022-09-20T03:13:52.038Z,70.59
2022-09-20T03:19:10.026Z,69.73
2022-09-20T03:24:24.370Z,70.10
2022-09-20T03:29:43.894Z,69.76
2022-09-20T03:34:58.218Z,69.50
2022-09-20T03:40:25.638Z,68.97
2022-09-20T03:45:47.391Z,68.83
2022-09-20T03:51:05.333Z,69.42
2022-09-20T03:56:33.572Z,69.06
2022-09-20T04:01:59.489Z,68.91
2022-09-20T04:07:22.379Z,67.96
2022-09-20T04:12:34.531Z,68.22
2022-09-20T04:17:50.225Z,67.77
2022-09-20T04:22:58.186Z,67.51
2022-09-20T04:28:11.770Z,67.82
2022-09-20T04:33:21.658Z,67.81
2022-09-20T04:38:26.470Z,68.03
2022-09-20T04:43:55.683Z,68.42
2022-09-20T04:49:50.118Z,68.13
2022-09-20T04:55:26.908Z,62.60
2022-09-20T05:00:44.594Z,60.35
2022-09-20T05:06:12.917Z,55.07
2022-09-20T05:11:55.276Z,55.92
2022-09-20T05:17:16.416Z,56.25
2022-09-20T05:22:53.203Z,56.70
2022-09-20T05:28:03.869Z,50.80
2022-09-20T05:33:20.482Z,47.44
2022-09-20T05:38:35.747Z,49.09
2022-09-20T05:43:51.924Z,52.72
2022-09-20T05:49:07.633Z,54.15
2022-09-20T05:54:29.265Z,55.70
2022-09-20T05:59:47.217Z,57.18
2022-09-20T06:05:01.430Z,57.33
2022-09-20T06:10:40.657Z,57.71
2022-09-20T06:15:57.540Z,58.04
2022-09-20T06:21:15.780Z,57.76
2022-09-20T06:26:24.135Z,57.52
2022-09-20T06:31:28.514Z,57.17
2022-09-20T06:36:54.826Z,56.38
2022-09-20T06:41:59.557Z,56.25
2022-09-20T06:47:03.661Z,56.82
2022-09-20T06:52:11.388Z,56.99
2022-09-20T06:57:18.765Z,56.41
2022-09-20T07:02:22.102Z,56.00
2022-09-20T07:07:27.645Z,54.39
2022-09-20T07:12:33.701Z,53.59
2022-09-20T07:17:37.794Z,53.38
2022-09-20T07:22:42.510Z,53.57
2022-09-20T07:27:47.230Z,54.00
2022-09-20T07:32:50.558Z,53.76
2022-09-20T07:38:00.255Z,54.04
2022-09-20T07:43:03.786Z,53.03
2022-09-20T07:48:08.075Z,51.23
2022-09-20T07:53:12.761Z,50.18
2022-09-20T07:58:16.939Z,48.09
2022-09-20T08:03:20.246Z,44.84
2022-09-20T08:08:25.117Z,42.54
2022-09-20T08:18:57.427Z,31.24
2022-09-20T08:24:04.143Z,32.29
2022-09-20T08:29:08.898Z,37.05
2022-09-20T08:34:15.148Z,40.19
2022-09-20T08:45:00.444Z,43.71
2022-09-20T08:50:10.200Z,43.33
2022-09-20T08:55:20.264Z,41.21
2022-09-20T09:00:27.393Z,42.13
2022-09-20T09:05:35.673Z,43.25
2022-09-20T09:10:43.133Z,43.70
2022-09-20T09:15:54.583Z,44.31
2022-09-20T09:21:00.159Z,44.03
2022-09-20T09:26:07.741Z,43.43
2022-09-20T09:31:23.299Z,43.14
2022-09-20T09:36:28.843Z,43.69
2022-09-20T09:41:36.206Z,43.48
2022-09-20T09:46:41.560Z,42.81
2022-09-20T09:52:03.419Z,42.33
2022-09-20T09:57:29.210Z,41.51
2022-09-20T10:03:01.984Z,40.90
2022-09-20T10:08:18.475Z,41.59
2022-09-20T10:13:29.726Z,41.86
2022-09-20T10:18:44.004Z,42.33
2022-09-20T10:24:13.187Z,42.87
2022-09-20T10:29:29.073Z,43.31
2022-09-20T10:34:57.964Z,43.23
2022-09-20T10:40:09.116Z,43.87
2022-09-20T10:45:53.246Z,44.63
2022-09-20T10:50:50.978Z,45.19
2022-09-20T10:56:09.308Z,46.00
2022-09-20T11:01:23.063Z,45.38
2022-09-20T11:06:44.381Z,45.58
2022-09-20T11:11:52.722Z,45.75
2022-09-20T11:17:03.904Z,46.12
2022-09-20T11:22:11.844Z,45.80
2022-09-20T11:27:20.836Z,45.71
2022-09-20T11:32:29.056Z,46.19
2022-09-20T11:37:39.077Z,46.14
2022-09-20T11:42:43.438Z,47.41
2022-09-20T11:47:55.313Z,47.41
2022-09-20T11:53:12.148Z,47.53
2022-09-20T11:58:20.022Z,48.39
2022-09-20T12:03:30.299Z,50.07
2022-09-20T12:08:37.393Z,50.67
2022-09-20T12:13:43.063Z,51.17
2022-09-20T12:19:04.360Z,52.56
2022-09-20T12:24:20.196Z,52.50
2022-09-20T12:30:15.806Z,52.23
2022-09-20T12:35:56.193Z,53.04
2022-09-20T12:41:05.041Z,53.20
2022-09-20T12:46:12.162Z,53.15
2022-09-20T12:51:41.253Z,52.75
2022-09-20T12:56:47.312Z,52.93
2022-09-20T13:01:51.663Z,53.17
2022-09-20T13:07:43.826Z,52.05
2022-09-20T13:12:53.939Z,52.50
2022-09-20T13:18:03.123Z,52.21
2022-09-20T13:23:06.781Z,52.49
2022-09-20T13:28:22.924Z,52.12
2022-09-20T13:33:26.879Z,52.70
2022-09-20T13:38:33.717Z,53.27
2022-09-20T13:43:42.570Z,53.39
2022-09-20T13:48:49.156Z,53.79
2022-09-20T13:53:52.668Z,53.62
2022-09-20T13:58:59.093Z,52.79
2022-09-20T14:04:08.423Z,53.35
2022-09-20T14:09:21.671Z,54.45
2022-09-20T14:14:26.987Z,54.68
2022-09-20T14:19:35.794Z,56.14
2022-09-20T14:24:39.857Z,56.77
2022-09-20T14:29:47.536Z,57.57
2022-09-20T14:35:00.545Z,58.42
2022-09-20T14:40:08.303Z,59.02
2022-09-20T14:45:25.685Z,60.28
2022-09-20T14:50:32.746Z,60.44
2022-09-20T14:55:38.552Z,60.51
2022-09-20T15:00:53.526Z,61.00
2022-09-20T15:05:58.080Z,61.64
2022-09-20T15:11:02.719Z,62.48
2022-09-20T15:16:08.468Z,61.38
2022-09-20T15:21:13.345Z,62.64
2022-09-20T15:26:21.333Z,62.58
2022-09-20T15:31:26.746Z,63.15
2022-09-20T15:36:33.259Z,63.55
2022-09-20T15:41:37.527Z,63.60
2022-09-20T15:46:43.671Z,64.33
2022-09-20T15:51:49.147Z,65.30
2022-09-20T15:56:54.207Z,65.55
2022-09-20T16:02:00.875Z,65.72
2022-09-20T16:07:07.406Z,66.35
2022-09-20T16:12:11.734Z,66.00
2022-09-20T16:17:18.019Z,65.67
2022-09-20T16:22:24.035Z,66.34
2022-09-20T16:27:28.267Z,66.53
2022-09-20T16:32:33.536Z,66.54
2022-09-20T16:37:38.102Z,66.21
2022-09-20T16:42:42.453Z,66.13
2022-09-20T16:47:48.443Z,66.43
2022-09-20T16:52:52.717Z,66.76
2022-09-20T16:57:57.558Z,67.34
2022-09-20T17:03:03.243Z,67.41
2022-09-20T17:08:07.045Z,67.66
2022-09-20T17:13:10.961Z,67.49
2022-09-20T17:18:17.793Z,67.61
2022-09-20T17:23:21.286Z,67.86
2022-09-20T17:28:26.300Z,68.22
2022-09-20T17:33:31.657Z,68.23
2022-09-20T17:38:40.222Z,68.18
2022-09-20T17:43:45.078Z,68.31
2022-09-20T17:48:53.494Z,68.54
2022-09-20T17:53:58.901Z,69.09
2022-09-20T17:59:05.417Z,69.55
2022-09-20T18:04:10.925Z,69.50
2022-09-20T18:09:17.251Z,69.80
2022-09-20T18:14:22.916Z,70.11
2022-09-20T18:19:33.566Z,70.25
2022-09-20T18:24:37.403Z,70.30
2022-09-20T18:29:41.806Z,70.30
2022-09-20T18:34:51.262Z,70.78
2022-09-20T18:39:55.744Z,70.83
2022-09-20T18:44:59.632Z,70.93
2022-09-20T18:50:04.752Z,70.81
2022-09-20T18:55:09.221Z,71.16
2022-09-20T19:00:16.797Z,71.12
2022-09-20T19:05:32.136Z,71.26
2022-09-20T19:10:43.741Z,71.67
2022-09-20T19:16:05.988Z,71.73
2022-09-20T19:21:24.184Z,71.83
2022-09-20T19:26:30.102Z,71.20
2022-09-20T19:31:36.345Z,70.87
2022-09-20T19:36:58.950Z,71.43
2022-09-20T19:42:15.816Z,71.58
2022-09-20T19:47:32.346Z,72.26
2022-09-20T19:52:39.489Z,72.88
2022-09-20T19:57:47.868Z,71.96
2022-09-20T20:02:51.749Z,71.73
2022-09-20T20:08:15.036Z,71.81
2022-09-20T20:13:42.369Z,72.20
2022-09-20T20:19:00.879Z,71.94
2022-09-20T20:24:17.129Z,72.12
2022-09-20T20:29:20.721Z,72.08
2022-09-20T20:34:26.515Z,71.54
2022-09-20T20:39:32.886Z,71.44
2022-09-20T20:44:36.445Z,71.71
2022-09-20T20:49:40.896Z,71.61
2022-09-20T20:54:45.661Z,71.50
2022-09-20T20:59:49.493Z,72.02
2022-09-20T21:04:52.845Z,71.13
2022-09-20T21:09:58.148Z,70.94
2022-09-20T21:15:01.605Z,71.19
2022-09-20T21:20:07.853Z,71.60
2022-09-20T21:25:12.757Z,71.63
2022-09-20T21:30:17.081Z,70.64
2022-09-20T21:35:21.675Z,71.92
2022-09-20T21:40:27.661Z,71.49
2022-09-20T21:45:31.880Z,71.62
2022-09-20T21:50:36.231Z,71.64
2022-09-20T21:55:41.674Z,71.49
2022-09-20T22:00:45.732Z,71.75
2022-09-20T22:05:50.030Z,71.09
2022-09-20T22:10:58.651Z,71.17
2022-09-20T22:16:07.744Z,70.77
2022-09-20T22:21:14.240Z,71.31
2022-09-20T22:26:21.299Z,71.03
2022-09-20T22:31:26.955Z,70.62
2022-09-20T22:36:32.973Z,70.92
2022-09-20T22:41:39.535Z,70.72
2022-09-20T22:46:43.692Z,70.59
2022-09-20T22:51:47.799Z,70.59
2022-09-20T22:56:53.238Z,70.96
2022-09-20T23:01:57.243Z,70.76
2022-09-20T23:07:01.446Z,70.91
2022-09-20T23:12:06.448Z,70.71
2022-09-20T23:17:10.458Z,71.26
2022-09-20T23:22:14.554Z,71.63
2022-09-20T23:27:20.268Z,71.45
2022-09-20T23:32:23.618Z,71.73
2022-09-20T23:37:27.701Z,71.56
2022-09-20T23:42:32.406Z,71.67
2022-09-20T23:47:36.445Z,71.68
2022-09-20T23:52:39.764Z,71.46
2022-09-20T23:57:45.278Z,71.74
